Terminal Aerodrome Forecast
Issued by NWS

Home | Current Version | Previous Version | Text Only | Print | Product List | Glossary On
Versions: 1 2 3 4 5 6 7 8 9 10 11 12 13 14
000
FTUS44 KMOB 250520
TAFBFM
TAF
KBFM 250520Z 2506/2606 09007KT P6SM VCSH FEW060 FEW120 BKN250
      TEMPO 2506/2510 -SHRA BKN040
     FM251500 07008KT P6SM SCT250
     FM251800 09007KT P6SM VCTS SCT035CB BKN250 PROB30 2520/2524
      VRB20G30KT 3SM TSRA BKN025CB
     FM260300 08005KT P6SM BKN200=

USA.gov is the U.S. government's official web portal to all federal, state and local government web resources and services.